الصفحة الرئيسية
METAR-TAF:

METAR-TAF

مطار :

بيروت, لبنان

قاعدة بيروت الجوية

دائرة عرض: 33-49N, خط طول: 035-29E, ارتفاع: 29 متر

مراقبة الطقس الحالي

تاريخ ووقت الإصدار 24 دقيقة قبل الساعة 18:00UTC
ريح 6 عقدة من الجنوب/الجنوب الشرقي, الاتجاه يتراوح بين الجنوب الشرقي و الجنوب الغربي
درجة الحرارة 16°درجة مئوية
الرطوبة 51%
ضغط 1015 hPa
الرؤية: 7000 متر
غيوم قليلة على ارتفاع 3000 قدم

METAR: OLBA 181800Z 16006KT 140V220 7000 FEW030 16/06 Q1015 NOSIG

زمن: 20:24 (18:24 UTC)

توقعات

تاريخ ووقت الإصدار 2ساعات و 24 دقيقة قبل الساعة 16:00UTC
التوقعات صالحة من18 الساعة 18 UTC إلى 19 الساعة 24 UTC
ريح 10 عقدة من الجنوب الغربي تتزايد حتى 25 عقدة
الرؤية: 8000 متر
غيوم مفككة على ارتفاع 2000 قدم
أصبح
من 19 الساعة 21 UTC إلى 19 الساعة 24 UTC
ريح 3 عقدةمن اتجاهات متغيرة
مؤقت
من 18 الساعة 18 UTC إلى 19 الساعة 24 UTC
الرؤية: 5000 متر
غشاء

TAF: OLBA 181600Z 1818/1924 23010G25KT 8000 BKN020 BECMG 1921/1924 VRB03KT TEMPO 1818/1924 5000 BR

أرصاد الطقس والتوقعات من أكثر من 4000 مطار (تقارير الطقس للمطار METAR والتنبؤ بالطقس بالمطارTAF).

المحطات المتاحة هي النقط الصفراء والحمراء على الخريطة.

حرك المؤشر فوق النقطة لمعرفة اسم المحطة.

ثم انقر لمعرفة أرصاد وتوقعات الطقس.

لتغيير الخارطة: اضغط على الأزرار الخضراء مع رمز الصليب الأسود للتكبير. على الزر الأخضر مع شرطة للتصغير، أو على الأسهم الخضراء للخرائط المجاورة.


METAR-TAF: